Time;durP1;ratioP1;P1;durP2;ratioP2;P2;SDS_P1;SDS_P2;PMS_P1;PMS_P2;Temp;Humidity;BMP_temperature;BMP_pressure;BME280_temperature;BME280_humidity;BME280_pressure;Samples;Min_cycle;Max_cycle;Signal;HPM_P1;HPM_P2
2023/07/08 00:00:48;;;;;;;9.30;8.40;;;;;;;22.89;44.93;98693.22;5058528;27;103340;-72
2023/07/08 00:03:23;;;;;;;6.70;6.03;;;;;;;23.33;43.91;98691.22;5050684;27;103013;-72
2023/07/08 00:05:56;;;;;;;7.50;6.80;;;;;;;23.27;44.06;98693.88;5058100;27;104965;-73
2023/07/08 00:08:24;;;;;;;8.35;7.55;;;;;;;22.62;45.23;98689.34;5031842;27;104399;-73
2023/07/08 00:10:56;;;;;;;6.75;6.15;;;;;;;23.07;44.30;98688.25;5053190;27;103172;-72
2023/07/08 00:13:25;;;;;;;9.30;7.97;;;;;;;22.13;46.36;98683.66;5059247;27;103847;-72
2023/07/08 00:15:52;;;;;;;7.87;7.07;;;;;;;22.31;45.17;98675.25;5042411;27;102801;-72
2023/07/08 00:18:20;;;;;;;7.97;6.85;;;;;;;22.78;44.66;98672.16;5046342;27;103911;-72
2023/07/08 00:20:50;;;;;;;7.75;6.85;;;;;;;22.90;44.29;98670.66;5057865;27;103206;-72
2023/07/08 00:23:21;;;;;;;8.13;7.32;;;;;;;22.12;44.70;98671.22;5040575;27;102677;-72
2023/07/08 00:25:49;;;;;;;7.35;6.63;;;;;;;22.14;44.58;98673.75;5058583;27;102779;-73
2023/07/08 00:28:20;;;;;;;6.43;5.83;;;;;;;22.74;43.89;98663.63;5035424;27;105492;-72
2023/07/08 00:30:49;;;;;;;7.50;6.80;;;;;;;22.31;44.53;98659.94;5030759;27;104306;-72
2023/07/08 00:33:17;;;;;;;7.25;5.70;;;;;;;22.68;44.11;98663.56;5045493;27;103086;-72
2023/07/08 00:35:46;;;;;;;8.38;7.22;;;;;;;22.60;44.05;98663.63;5039902;27;102796;-73
2023/07/08 00:38:26;;;;;;;6.88;6.25;;;;;;;22.79;43.58;98663.06;5031341;27;103285;-72
2023/07/08 00:41:00;;;;;;;8.45;7.55;;;;;;;22.35;44.11;98655.84;5027698;27;104153;-72
2023/07/08 00:43:37;;;;;;;7.38;6.45;;;;;;;22.58;44.14;98669.19;5043827;27;102879;-72
2023/07/08 00:46:17;;;;;;;8.53;7.63;;;;;;;22.47;44.67;98667.81;5039209;27;103982;-72
2023/07/08 00:48:47;;;;;;;6.63;5.97;;;;;;;22.75;43.75;98684.16;5058007;27;104046;-73
2023/07/08 00:51:18;;;;;;;7.53;6.72;;;;;;;22.64;44.26;98681.09;5050645;27;103261;-73
2023/07/08 00:53:47;;;;;;;7.80;7.00;;;;;;;22.37;45.14;98680.69;5063395;27;102909;-73
2023/07/08 00:56:21;;;;;;;7.53;6.57;;;;;;;22.54;44.50;98687.56;5053536;27;102784;-73
2023/07/08 00:58:57;;;;;;;7.30;6.43;;;;;;;22.41;44.88;98690.09;5058026;27;104088;-73
2023/07/08 01:01:27;;;;;;;5.50;5.00;;;;;;;22.65;44.17;98693.53;5045194;27;104201;-73
2023/07/08 01:04:01;;;;;;;7.13;6.43;;;;;;;22.64;44.42;98692.69;5046636;27;102929;-73
2023/07/08 01:06:33;;;;;;;8.35;7.28;;;;;;;22.18;47.07;98689.31;5054486;27;103184;-73
2023/07/08 01:09:05;;;;;;;8.23;7.43;;;;;;;22.08;47.83;98693.31;5036310;27;104266;-73
2023/07/08 01:11:38;;;;;;;9.05;8.15;;;;;;;21.51;50.01;98687.56;5050603;27;103110;-73
2023/07/08 01:14:13;;;;;;;8.00;7.20;;;;;;;21.71;49.52;98688.75;5043830;27;104161;-74
2023/07/08 01:16:42;;;;;;;7.72;6.93;;;;;;;21.90;48.11;98677.50;5030786;27;104217;-74
2023/07/08 01:19:16;;;;;;;9.13;6.90;;;;;;;22.02;47.39;98676.03;5044962;27;103587;-73
2023/07/08 01:21:48;;;;;;;7.65;6.93;;;;;;;21.91;47.26;98671.13;5042699;27;103229;-73
2023/07/08 01:24:16;;;;;;;7.83;7.03;;;;;;;21.49;47.42;98685.06;5042536;27;102944;-73
2023/07/08 01:26:46;;;;;;;6.15;5.55;;;;;;;21.79;46.29;98678.75;5033781;27;102839;-73
2023/07/08 01:29:14;;;;;;;6.77;6.10;;;;;;;21.95;46.72;98681.31;5041238;27;106417;-73
2023/07/08 01:31:48;;;;;;;7.95;7.25;;;;;;;21.47;48.69;98683.59;5036934;27;103177;-73
2023/07/08 01:34:17;;;;;;;9.15;7.57;;;;;;;21.39;49.57;98679.09;5050374;27;102864;-74
2023/07/08 01:36:53;;;;;;;6.50;5.90;;;;;;;21.54;48.54;98684.53;5042345;27;104261;-74
2023/07/08 01:39:25;;;;;;;8.70;7.40;;;;;;;20.45;51.15;98679.28;5039519;27;104425;-73
2023/07/08 01:41:54;;;;;;;7.40;6.70;;;;;;;20.68;49.71;98679.34;5036012;27;104207;-74
2023/07/08 01:44:24;;;;;;;7.82;6.82;;;;;;;21.13;48.19;98679.47;5059088;27;103053;-73
2023/07/08 01:46:54;;;;;;;6.10;5.50;;;;;;;21.42;47.35;98669.84;5035710;27;103878;-73
2023/07/08 01:49:22;;;;;;;5.90;5.40;;;;;;;21.62;47.00;98674.53;5060435;27;103261;-73
2023/07/08 01:51:52;;;;;;;7.55;6.80;;;;;;;21.20;49.36;98680.41;5044845;27;103145;-73
2023/07/08 01:54:20;;;;;;;6.68;6.00;;;;;;;21.39;49.58;98676.41;5057239;27;102852;-73
2023/07/08 01:56:51;;;;;;;5.47;4.97;;;;;;;21.59;48.90;98676.75;5042529;27;103916;-73
2023/07/08 01:59:19;;;;;;;6.95;6.30;;;;;;;21.63;50.06;98683.44;5038058;27;104066;-73
2023/07/08 02:01:49;;;;;;;7.70;7.00;;;;;;;21.66;50.03;98681.25;5033469;27;104129;-73
2023/07/08 02:04:17;;;;;;;7.83;7.03;;;;;;;21.14;51.29;98683.81;5038112;27;102866;-73
2023/07/08 02:06:53;;;;;;;8.60;7.38;;;;;;;20.78;51.72;98679.94;5055391;27;102965;-73
2023/07/08 02:09:21;;;;;;;8.45;7.55;;;;;;;20.61;50.36;98684.56;5050960;27;104097;-73
2023/07/08 02:11:49;;;;;;;5.18;4.72;;;;;;;21.19;49.02;98688.66;5040120;27;103187;-73
2023/07/08 02:14:17;;;;;;;5.43;4.93;;;;;;;21.42;47.95;98678.72;5040512;27;102705;-73
2023/07/08 02:16:45;;;;;;;7.88;6.82;;;;;;;21.02;49.87;98679.00;5024991;27;102801;-73
2023/07/08 02:19:13;;;;;;;9.90;7.00;;;;;;;20.95;50.07;98683.38;5038230;27;104430;-73
2023/07/08 02:21:41;;;;;;;7.90;7.20;;;;;;;20.59;51.83;98680.38;5043517;27;104046;-73
2023/07/08 02:24:10;;;;;;;6.50;5.90;;;;;;;21.04;49.20;98682.31;5033819;27;103053;-73
2023/07/08 02:26:38;;;;;;;6.30;5.70;;;;;;;21.18;49.11;98684.28;5042577;27;104196;-73
2023/07/08 02:29:06;;;;;;;8.77;7.38;;;;;;;20.47;51.33;98692.50;5052772;27;103273;-73
2023/07/08 02:31:34;;;;;;;7.57;6.78;;;;;;;20.82;50.65;98694.72;5056867;27;103267;-73
2023/07/08 02:34:02;;;;;;;8.60;7.70;;;;;;;20.11;52.30;98698.28;5033256;27;102925;-73
2023/07/08 02:36:30;;;;;;;8.00;7.20;;;;;;;20.23;52.13;98688.03;5040211;27;102835;-72
2023/07/08 02:38:58;;;;;;;6.00;5.40;;;;;;;20.72;50.70;98696.75;5044062;27;104268;-72
2023/07/08 02:41:27;;;;;;;6.57;5.97;;;;;;;20.91;49.93;98696.34;5034811;27;104596;-74
2023/07/08 02:43:55;;;;;;;8.02;7.22;;;;;;;20.96;50.18;98687.75;5040015;27;102809;-74
2023/07/08 02:46:25;;;;;;;6.57;5.97;;;;;;;21.03;50.15;98694.06;5039752;27;103587;-73
2023/07/08 02:48:53;;;;;;;6.37;5.77;;;;;;;21.03;50.24;98697.59;5045584;27;103369;-73
2023/07/08 02:51:21;;;;;;;9.52;7.45;;;;;;;20.68;51.10;98700.81;5042238;27;103299;-73
2023/07/08 02:53:51;;;;;;;8.65;7.75;;;;;;;20.22;52.42;98700.59;5035010;27;102838;-73
2023/07/08 02:56:19;;;;;;;8.10;7.30;;;;;;;19.99;52.37;98705.00;5057444;27;103048;-73
2023/07/08 02:58:50;;;;;;;7.47;6.55;;;;;;;20.45;51.22;98699.91;5038952;27;104002;-73
2023/07/08 03:01:18;;;;;;;7.47;6.77;;;;;;;20.73;50.40;98701.13;5044994;27;103229;-74
2023/07/08 03:03:46;;;;;;;6.20;5.60;;;;;;;20.91;49.77;98706.25;5030030;27;102892;-73
2023/07/08 03:06:15;;;;;;;5.93;5.32;;;;;;;21.05;49.47;98717.06;5061133;27;103910;-74
2023/07/08 03:08:43;;;;;;;7.82;6.43;;;;;;;21.02;50.08;98717.44;5039629;27;105209;-73
2023/07/08 03:11:13;;;;;;;6.20;5.50;;;;;;;21.12;50.37;98731.50;5032212;27;104203;-73
2023/07/08 03:13:44;;;;;;;7.40;6.70;;;;;;;21.14;51.41;98740.22;5041303;27;103088;-73
2023/07/08 03:16:13;;;;;;;7.68;6.80;;;;;;;20.93;52.20;98737.28;5042805;27;104187;-73
2023/07/08 03:18:45;;;;;;;8.88;7.50;;;;;;;20.03;55.48;98735.84;5045877;27;103301;-73
2023/07/08 03:21:16;;;;;;;7.95;7.15;;;;;;;20.38;54.06;98726.56;5037696;27;104482;-73
2023/07/08 03:23:44;;;;;;;8.30;7.50;;;;;;;20.57;53.32;98725.34;5035087;27;102805;-73
2023/07/08 03:26:15;;;;;;;5.70;5.20;;;;;;;20.89;51.58;98730.56;5057533;27;103895;-76
2023/07/08 03:28:46;;;;;;;5.57;5.07;;;;;;;21.06;51.32;98736.69;5033053;27;105259;-70
2023/07/08 03:31:16;;;;;;;6.77;6.17;;;;;;;21.02;51.59;98738.91;5032993;27;103381;-70
2023/07/08 03:33:44;;;;;;;10.23;8.50;;;;;;;19.53;55.93;98729.81;5030876;27;102678;-70
2023/07/08 03:36:22;;;;;;;9.60;8.45;;;;;;;19.15;56.03;98725.88;5045740;27;103183;-70
2023/07/08 03:38:52;;;;;;;8.55;7.70;;;;;;;19.30;56.29;98734.09;5031968;27;105998;-69
2023/07/08 03:41:20;;;;;;;6.18;5.68;;;;;;;20.26;52.46;98746.75;5038371;27;104270;-69
2023/07/08 03:43:50;;;;;;;8.45;7.57;;;;;;;19.26;56.30;98732.75;5042243;27;102645;-69
2023/07/08 03:46:22;;;;;;;8.90;7.93;;;;;;;19.42;55.60;98714.91;5042133;27;103039;-70
2023/07/08 03:48:52;;;;;;;8.77;7.35;;;;;;;19.02;57.09;98714.81;5038604;27;106212;-70
2023/07/08 03:51:23;;;;;;;6.77;6.07;;;;;;;19.89;53.95;98725.81;5044377;27;105931;-69
2023/07/08 03:53:52;;;;;;;8.00;6.95;;;;;;;20.27;53.52;98745.72;5033062;27;103279;-70
2023/07/08 03:56:22;;;;;;;7.90;7.03;;;;;;;20.01;55.08;98745.06;5037296;27;103878;-70
2023/07/08 03:58:50;;;;;;;8.18;7.38;;;;;;;20.10;54.93;98734.13;5038370;27;104123;-70
2023/07/08 04:01:21;;;;;;;8.50;7.65;;;;;;;19.39;57.50;98733.16;5047400;27;103273;-69
2023/07/08 04:03:49;;;;;;;6.87;6.17;;;;;;;20.18;54.59;98747.53;5056574;27;102891;-69
2023/07/08 04:06:17;;;;;;;7.63;6.83;;;;;;;20.36;54.26;98736.63;5040202;27;104426;-71
2023/07/08 04:08:48;;;;;;;9.50;8.38;;;;;;;19.29;58.15;98732.41;5044021;27;103481;-71
2023/07/08 04:11:21;;;;;;;8.93;8.02;;;;;;;18.91;59.53;98737.38;5041037;27;103041;-81
2023/07/08 04:13:52;;;;;;;8.73;7.93;;;;;;;19.59;57.92;98746.06;5061600;27;102713;-84
2023/07/08 04:16:26;;;;;;;9.27;8.00;;;;;;;19.88;57.12;98739.34;5058508;27;104142;-85
2023/07/08 04:18:55;;;;;;;10.40;8.20;;;;;;;19.46;58.34;98728.81;5060656;27;103256;-84
2023/07/08 04:21:25;;;;;;;8.70;7.68;;;;;;;19.88;56.46;98732.16;5066239;27;103176;-84
2023/07/08 04:23:53;;;;;;;5.82;5.32;;;;;;;20.53;54.10;98726.69;5039703;27;102735;-85
2023/07/08 04:26:21;;;;;;;7.20;6.50;;;;;;;20.78;54.50;98722.91;5044449;27;102933;-84
2023/07/08 04:29:18;;;;;;;6.57;5.97;;;;;;;21.01;54.16;98718.44;5060930;27;103265;-85
2023/07/08 04:31:49;;;;;;;9.98;8.25;;;;;;;20.18;57.20;98730.63;5043747;27;103198;-84
2023/07/08 04:34:18;;;;;;;9.13;7.80;;;;;;;20.13;58.15;98723.06;5047072;27;103040;-85
2023/07/08 04:36:47;;;;;;;11.57;8.40;;;;;;;19.82;59.58;98727.47;5045944;27;102850;-82
2023/07/08 04:39:18;;;;;;;8.80;7.90;;;;;;;20.05;58.41;98727.63;5042735;27;103925;-82
2023/07/08 04:41:46;;;;;;;8.93;8.02;;;;;;;20.13;56.89;98720.41;5054428;27;103185;-86
2023/07/08 04:44:18;;;;;;;9.83;8.27;;;;;;;20.10;54.78;98723.41;5049292;27;102885;-83
2023/07/08 04:46:50;;;;;;;9.18;8.23;;;;;;;20.41;54.54;98722.69;5036564;27;102779;-84
2023/07/08 04:49:19;;;;;;;13.65;9.23;;;;;;;20.30;55.17;98715.00;5032309;27;104121;-84
2023/07/08 04:51:47;;;;;;;7.90;7.00;;;;;;;21.00;56.25;98727.50;5041913;27;103201;-84
2023/07/08 04:54:15;;;;;;;6.70;6.00;;;;;;;21.56;54.63;98725.50;5063367;27;102703;-83
2023/07/08 04:56:45;;;;;;;7.00;6.20;;;;;;;21.84;55.53;98727.44;5050669;27;102977;-84
2023/07/08 04:59:15;;;;;;;9.63;7.97;;;;;;;21.72;50.25;98722.69;5039550;27;104327;-84
2023/07/08 05:01:43;;;;;;;6.50;5.90;;;;;;;21.87;50.58;98732.50;5057001;27;103219;-84
2023/07/08 05:04:18;;;;;;;6.47;5.88;;;;;;;22.09;53.99;98749.59;5042849;27;102883;-83
2023/07/08 05:06:46;;;;;;;8.10;7.17;;;;;;;22.06;52.03;98741.94;5043537;27;102758;-83
2023/07/08 05:09:14;;;;;;;11.07;8.23;;;;;;;21.00;53.28;98735.56;5059135;27;102969;-84
2023/07/08 05:11:44;;;;;;;8.88;7.50;;;;;;;20.94;53.74;98738.94;5062362;27;103139;-82
2023/07/08 05:14:15;;;;;;;8.85;7.95;;;;;;;20.93;54.40;98737.28;5037932;27;102757;-82
2023/07/08 05:16:43;;;;;;;10.05;8.18;;;;;;;21.12;52.55;98739.56;5044738;27;103855;-81
2023/07/08 05:19:11;;;;;;;9.60;8.50;;;;;;;20.77;54.05;98737.38;5027564;27;104251;-82
2023/07/08 05:21:41;;;;;;;6.90;6.25;;;;;;;21.71;50.86;98742.50;5037608;27;103102;-81
2023/07/08 05:24:08;;;;;;;9.93;7.80;;;;;;;21.68;52.56;98740.19;5028068;27;102798;-82
2023/07/08 05:26:39;;;;;;;7.10;6.40;;;;;;;22.12;51.51;98735.78;5055264;27;102667;-81
2023/07/08 05:29:07;;;;;;;5.72;5.15;;;;;;;22.58;52.35;98746.41;5046311;27;104146;-82
2023/07/08 05:31:35;;;;;;;7.47;6.72;;;;;;;22.85;51.79;98752.00;5041122;27;103463;-84
2023/07/08 05:34:06;;;;;;;8.90;7.57;;;;;;;22.84;51.43;98757.59;5051725;27;102684;-81
2023/07/08 05:36:34;;;;;;;9.30;8.40;;;;;;;22.49;52.19;98773.44;5043130;27;102863;-85
2023/07/08 05:39:03;;;;;;;9.03;8.13;;;;;;;22.36;53.15;98765.16;5041931;27;103990;-77
2023/07/08 05:41:31;;;;;;;8.45;7.30;;;;;;;22.12;52.98;98746.53;5037870;27;104210;-77
2023/07/08 05:44:01;;;;;;;7.05;6.35;;;;;;;22.80;52.26;98748.19;5059509;27;102940;-78
2023/07/08 05:46:29;;;;;;;7.53;6.72;;;;;;;23.01;50.62;98749.13;5053972;27;103973;-79
2023/07/08 05:48:58;;;;;;;7.10;6.40;;;;;;;23.36;53.55;98771.69;5044559;27;103529;-78
2023/07/08 05:51:28;;;;;;;8.10;6.90;;;;;;;23.50;53.73;98770.88;5057895;27;102616;-77
2023/07/08 05:53:56;;;;;;;9.25;7.88;;;;;;;23.34;53.63;98765.69;5063366;27;102676;-77
2023/07/08 05:56:26;;;;;;;10.75;8.32;;;;;;;22.66;52.07;98765.19;5035221;27;103020;-79
2023/07/08 05:58:53;;;;;;;8.02;7.22;;;;;;;22.89;52.71;98777.56;5053793;27;103943;-77
2023/07/08 06:01:21;;;;;;;8.90;8.00;;;;;;;23.04;50.20;98769.47;5041033;27;103084;-77
2023/07/08 06:03:49;;;;;;;8.50;7.60;;;;;;;23.28;50.45;98769.13;5050586;27;103001;-79
2023/07/08 06:06:17;;;;;;;8.20;7.10;;;;;;;23.55;51.93;98768.41;5052760;27;102727;-77
2023/07/08 06:08:45;;;;;;;6.40;5.80;;;;;;;24.13;50.59;98780.00;5047968;27;103290;-79
2023/07/08 06:11:13;;;;;;;6.50;5.95;;;;;;;24.36;49.72;98771.69;5030490;27;103010;-77
2023/07/08 06:13:42;;;;;;;10.20;7.80;;;;;;;24.16;46.49;98772.38;5048144;27;102775;-75
2023/07/08 06:16:11;;;;;;;6.47;5.88;;;;;;;24.57;47.69;98768.91;5054304;27;104387;-75
2023/07/08 06:18:38;;;;;;;9.98;8.05;;;;;;;24.39;46.01;98765.91;5033068;27;104446;-78
2023/07/08 06:21:06;;;;;;;5.95;5.45;;;;;;;24.90;44.80;98777.25;5041756;27;102736;-78
2023/07/08 06:23:34;;;;;;;8.10;7.30;;;;;;;24.96;44.86;98784.53;5052345;27;102662;-79
2023/07/08 06:26:02;;;;;;;6.75;6.13;;;;;;;25.23;43.60;98775.53;5040775;27;104411;-74
2023/07/08 06:28:30;;;;;;;6.25;5.65;;;;;;;25.53;44.06;98779.63;5049062;27;104055;-74
2023/07/08 06:30:59;;;;;;;6.95;6.32;;;;;;;25.70;43.84;98772.78;5049268;27;104663;-75
2023/07/08 06:33:27;;;;;;;6.20;5.60;;;;;;;25.91;44.62;98774.47;5035769;27;102865;-82
2023/07/08 06:35:56;;;;;;;5.72;5.20;;;;;;;26.13;43.71;98764.31;5058700;27;102749;-75
2023/07/08 06:38:23;;;;;;;6.47;5.88;;;;;;;26.24;43.34;98769.13;5032207;27;104105;-76
2023/07/08 06:40:54;;;;;;;8.65;7.35;;;;;;;26.00;44.83;98781.34;5041328;27;103455;-77
2023/07/08 06:43:23;;;;;;;8.85;7.85;;;;;;;25.97;44.82;98778.22;5065626;27;102861;-76
2023/07/08 06:45:56;;;;;;;7.87;7.10;;;;;;;26.39;44.70;98780.56;5053848;27;102916;-76
2023/07/08 06:48:26;;;;;;;7.22;6.57;;;;;;;26.66;44.35;98790.34;5060382;27;102983;-77
2023/07/08 06:50:56;;;;;;;8.15;7.05;;;;;;;26.95;44.08;98789.88;5041221;27;103273;-76
2023/07/08 06:53:24;;;;;;;7.83;7.10;;;;;;;26.97;40.50;98781.53;5064114;27;102843;-75
2023/07/08 06:55:52;;;;;;;8.02;6.43;;;;;;;27.15;39.63;98783.53;5033385;27;102950;-72
2023/07/08 06:58:21;;;;;;;7.18;5.97;;;;;;;27.49;39.50;98783.22;5056360;27;103776;-74
2023/07/08 07:00:54;;;;;;;7.73;5.67;;;;;;;27.29;39.97;98786.00;5054838;27;103295;-73
2023/07/08 07:03:23;;;;;;;6.20;5.30;;;;;;;27.40;40.44;98793.44;5057857;27;103409;-74
2023/07/08 07:05:52;;;;;;;6.47;4.80;;;;;;;27.40;39.76;98790.75;5039216;27;102966;-76
2023/07/08 07:08:20;;;;;;;4.93;4.35;;;;;;;27.55;39.88;98801.34;5060868;27;103429;-78
2023/07/08 07:10:49;;;;;;;5.47;4.90;;;;;;;27.75;40.75;98806.66;5038470;27;104311;-78
2023/07/08 07:13:19;;;;;;;5.80;5.20;;;;;;;27.68;40.08;98805.88;5054322;27;102892;-80
2023/07/08 07:15:49;;;;;;;4.80;4.25;;;;;;;27.84;38.93;98802.66;5052382;27;102714;-74
2023/07/08 07:18:19;;;;;;;6.95;4.78;;;;;;;27.69;40.11;98802.94;5044178;27;104011;-79
2023/07/08 07:20:50;;;;;;;5.10;4.60;;;;;;;27.97;40.08;98806.09;5062468;27;103227;-77
2023/07/08 07:23:19;;;;;;;5.82;5.15;;;;;;;27.97;38.31;98811.53;5037841;27;102944;-79
2023/07/08 07:25:48;;;;;;;5.88;4.70;;;;;;;27.77;39.61;98807.28;5043945;27;104262;-80
2023/07/08 07:28:17;;;;;;;5.93;4.67;;;;;;;28.14;40.40;98807.28;5047630;27;104017;-79
2023/07/08 07:30:45;;;;;;;5.97;5.07;;;;;;;28.21;40.45;98801.81;5052484;27;104159;-80
2023/07/08 07:33:14;;;;;;;5.95;5.20;;;;;;;28.21;39.40;98800.97;5052284;27;102729;-80
2023/07/08 07:35:46;;;;;;;8.02;5.63;;;;;;;27.73;40.13;98798.75;5043234;27;103501;-76
2023/07/08 07:38:15;;;;;;;7.10;5.73;;;;;;;27.73;39.92;98809.63;5054911;27;102826;-71
2023/07/08 07:40:47;;;;;;;7.72;5.78;;;;;;;28.08;39.54;98813.56;5042764;27;103464;-73
2023/07/08 07:43:18;;;;;;;6.68;5.22;;;;;;;27.77;39.64;98821.69;5049375;27;103001;-73
2023/07/08 07:45:50;;;;;;;8.40;6.20;;;;;;;27.15;40.25;98819.63;5044278;27;105297;-80
2023/07/08 07:48:18;;;;;;;7.82;6.22;;;;;;;27.10;42.51;98824.03;5027988;27;103525;-77
2023/07/08 07:50:55;;;;;;;8.17;6.87;;;;;;;27.26;41.13;98821.69;5029545;27;104374;-73
2023/07/08 07:53:23;;;;;;;6.83;6.13;;;;;;;27.50;42.63;98821.00;5031603;27;102908;-74
2023/07/08 07:56:03;;;;;;;6.55;5.85;;;;;;;28.55;39.84;98820.28;5043385;27;102748;-72
2023/07/08 07:58:32;;;;;;;6.13;5.53;;;;;;;29.16;38.36;98814.91;5046059;27;103526;-73
2023/07/08 08:01:00;;;;;;;6.47;5.88;;;;;;;29.08;39.38;98819.81;5028655;27;105266;-75
2023/07/08 08:03:31;;;;;;;6.80;6.10;;;;;;;28.89;37.65;98827.09;5029497;27;103531;-75
2023/07/08 08:06:00;;;;;;;7.45;6.70;;;;;;;28.74;37.48;98821.22;5028550;27;103083;-74
2023/07/08 08:08:31;;;;;;;6.53;5.75;;;;;;;28.94;37.08;98818.28;5035294;27;103554;-78
2023/07/08 08:11:06;;;;;;;6.72;6.03;;;;;;;28.91;37.29;98808.72;5031334;27;104487;-74
2023/07/08 08:13:35;;;;;;;7.40;6.70;;;;;;;28.60;37.38;98816.94;5034984;27;103004;-82
2023/07/08 08:16:03;;;;;;;6.95;5.72;;;;;;;29.56;38.19;98815.25;5034598;27;102876;-82
2023/07/08 08:18:32;;;;;;;5.20;4.80;;;;;;;30.37;35.67;98815.56;5039597;27;104204;-82
2023/07/08 08:21:00;;;;;;;7.82;5.88;;;;;;;29.54;37.04;98813.81;5049701;27;102836;-74
2023/07/08 08:23:28;;;;;;;6.50;5.90;;;;;;;30.22;35.26;98817.91;5033604;27;102731;-73
2023/07/08 08:25:56;;;;;;;6.15;5.55;;;;;;;30.79;36.64;98812.78;5035057;27;105167;-75
2023/07/08 08:28:25;;;;;;;8.38;6.38;;;;;;;29.80;36.20;98813.50;5032448;27;104325;-75
2023/07/08 08:30:53;;;;;;;7.72;5.80;;;;;;;31.32;35.24;98808.00;5032553;27;104177;-76
2023/07/08 08:33:21;;;;;;;6.55;5.93;;;;;;;31.50;34.15;98809.72;5047258;27;102758;-75
2023/07/08 08:35:49;;;;;;;7.55;5.97;;;;;;;31.90;33.23;98815.97;5042508;27;104181;-75
2023/07/08 08:38:19;;;;;;;7.85;6.70;;;;;;;30.55;34.95;98816.53;5060378;27;104523;-77
2023/07/08 08:40:47;;;;;;;5.97;5.30;;;;;;;32.12;39.02;98818.84;5041894;27;103187;-78
2023/07/08 08:43:19;;;;;;;6.75;5.60;;;;;;;33.09;33.71;98817.47;5052566;27;102881;-79
2023/07/08 08:46:00;;;;;;;7.78;5.82;;;;;;;32.21;32.96;98811.94;5051573;27;103848;-78
2023/07/08 08:48:32;;;;;;;6.97;5.53;;;;;;;31.98;34.00;98812.00;5057603;27;103432;-79
2023/07/08 08:51:08;;;;;;;6.03;5.28;;;;;;;33.08;32.81;98812.25;5061356;27;103212;-77
2023/07/08 08:53:36;;;;;;;5.72;5.20;;;;;;;32.35;31.88;98813.25;5057945;27;102908;-77
2023/07/08 08:56:14;;;;;;;7.70;5.17;;;;;;;32.80;32.19;98818.66;5049875;27;102658;-77
2023/07/08 08:58:47;;;;;;;6.43;5.00;;;;;;;34.02;31.72;98818.34;5045446;27;104399;-76
2023/07/08 09:01:18;;;;;;;5.90;3.87;;;;;;;34.25;31.38;98821.59;5040797;27;103343;-75
2023/07/08 09:03:51;;;;;;;4.13;3.17;;;;;;;34.62;30.23;98823.56;5053827;27;102980;-76
2023/07/08 09:06:25;;;;;;;3.60;2.92;;;;;;;35.39;28.65;98812.81;5052147;27;102840;-76
2023/07/08 09:08:53;;;;;;;3.70;2.83;;;;;;;35.93;28.67;98808.59;5045534;27;103231;-76
2023/07/08 09:11:37;;;;;;;3.50;2.88;;;;;;;35.60;28.46;98809.06;5058023;27;103311;-73
2023/07/08 09:14:13;;;;;;;4.53;3.15;;;;;;;34.88;28.05;98815.28;5050902;27;103067;-76
2023/07/08 09:16:48;;;;;;;3.88;2.95;;;;;;;34.79;29.42;98824.25;5050478;27;104775;-79
2023/07/08 09:19:21;;;;;;;4.30;2.70;;;;;;;34.16;29.53;98819.59;5047005;27;103548;-75
2023/07/08 09:21:54;;;;;;;3.87;3.07;;;;;;;34.58;29.53;98817.81;5054939;27;103240;-75
2023/07/08 09:24:32;;;;;;;3.17;2.70;;;;;;;36.07;30.04;98814.47;5059250;27;102850;-76
2023/07/08 09:27:02;;;;;;;3.08;2.63;;;;;;;35.55;28.27;98811.81;5053474;27;103107;-76
2023/07/08 09:29:33;;;;;;;3.03;2.60;;;;;;;35.77;28.13;98811.59;5052980;27;103262;-76
2023/07/08 09:32:18;;;;;;;3.03;2.35;;;;;;;35.49;27.87;98807.34;5062106;27;103309;-77
2023/07/08 09:34:48;;;;;;;2.90;2.00;;;;;;;35.08;29.43;98816.50;5032129;27;103079;-78
2023/07/08 09:37:26;;;;;;;3.47;1.90;;;;;;;36.18;27.25;98809.78;5065337;27;103777;-77
2023/07/08 09:39:56;;;;;;;3.10;1.98;;;;;;;36.11;27.86;98807.31;5055544;27;105087;-77
2023/07/08 09:42:28;;;;;;;3.10;2.00;;;;;;;36.16;27.49;98817.50;5062800;27;102939;-77
2023/07/08 09:44:58;;;;;;;3.80;2.20;;;;;;;34.93;28.31;98815.28;5059230;27;103289;-77
2023/07/08 09:47:32;;;;;;;3.17;2.20;;;;;;;35.49;28.16;98816.44;5051172;27;103697;-77
2023/07/08 09:50:03;;;;;;;3.38;2.25;;;;;;;35.32;27.95;98814.97;5063522;27;103996;-77
2023/07/08 09:52:32;;;;;;;3.15;2.00;;;;;;;35.68;27.47;98814.03;5066508;27;103221;-77
2023/07/08 09:55:01;;;;;;;2.63;1.73;;;;;;;36.38;27.71;98804.31;5041833;27;102770;-77
2023/07/08 09:57:32;;;;;;;2.83;1.85;;;;;;;35.78;27.42;98805.84;5062565;27;104599;-77
2023/07/08 10:00:03;;;;;;;3.20;2.30;;;;;;;36.20;28.51;98802.09;5066041;27;103275;-77
2023/07/08 10:02:40;;;;;;;3.67;2.42;;;;;;;36.45;27.23;98804.84;5057852;27;103223;-77
2023/07/08 10:05:20;;;;;;;3.75;2.10;;;;;;;36.38;26.35;98799.59;5059374;27;102721;-76
2023/07/08 10:07:49;;;;;;;2.38;1.90;;;;;;;36.01;26.72;98796.28;5065954;27;104131;-77
2023/07/08 10:10:19;;;;;;;2.47;2.28;;;;;;;35.65;27.31;98802.78;5044649;27;104139;-77
2023/07/08 10:12:57;;;;;;;2.90;1.98;;;;;;;35.99;27.17;98796.53;5039176;27;105984;-77
2023/07/08 10:15:34;;;;;;;2.47;2.05;;;;;;;35.84;26.95;98787.44;5055606;27;103280;-77
2023/07/08 10:18:04;;;;;;;4.70;2.42;;;;;;;35.59;27.60;98801.13;5052513;27;102887;-77
2023/07/08 10:20:42;;;;;;;3.83;2.63;;;;;;;35.54;29.10;98798.31;5062981;27;103393;-77
2023/07/08 10:23:22;;;;;;;3.10;2.80;;;;;;;35.89;27.56;98796.53;5055045;27;103193;-76
2023/07/08 10:25:59;;;;;;;3.72;2.83;;;;;;;36.11;28.22;98795.47;5052177;27;102751;-77
2023/07/08 10:28:38;;;;;;;3.63;3.20;;;;;;;35.66;28.23;98798.94;5040702;27;102781;-77
2023/07/08 10:31:17;;;;;;;5.80;3.53;;;;;;;34.71;29.90;98802.78;5034673;27;104687;-77
2023/07/08 10:34:08;;;;;;;5.43;3.25;;;;;;;34.69;30.16;98803.06;5064246;27;103324;-78
2023/07/08 10:36:44;;;;;;;4.32;3.70;;;;;;;34.57;29.92;98810.66;5041561;27;102660;-77
2023/07/08 10:39:35;;;;;;;4.88;3.90;;;;;;;33.39;31.78;98811.56;5057770;27;102659;-76
2023/07/08 10:42:13;;;;;;;5.10;4.05;;;;;;;33.21;32.20;98800.91;5059240;27;103390;-77
2023/07/08 10:44:48;;;;;;;6.55;4.05;;;;;;;33.82;31.66;98802.50;5061469;27;103195;-78
2023/07/08 10:47:30;;;;;;;4.95;4.38;;;;;;;34.28;31.56;98814.75;5048700;27;102926;-77
2023/07/08 10:50:17;;;;;;;5.72;4.97;;;;;;;34.72;30.75;98812.69;5050787;27;102943;-77
2023/07/08 10:52:56;;;;;;;7.82;4.57;;;;;;;33.51;32.83;98814.19;5047801;27;104179;-78
2023/07/08 10:55:34;;;;;;;6.03;4.22;;;;;;;33.88;32.00;98812.44;5063953;27;103246;-77
2023/07/08 10:58:40;;;;;;;9.45;4.13;;;;;;;33.83;32.57;98811.56;5045032;27;103691;-76
2023/07/08 11:01:21;;;;;;;6.57;4.30;;;;;;;34.00;32.34;98812.25;5007720;27;103265;-77
2023/07/08 11:04:12;;;;;;;4.43;3.93;;;;;;;35.41;33.21;98805.97;5063236;27;104026;-77
2023/07/08 11:06:54;;;;;;;6.05;4.22;;;;;;;34.83;31.30;98812.50;5049195;27;103123;-76
2023/07/08 11:09:29;;;;;;;5.33;4.07;;;;;;;34.90;29.81;98804.84;5047165;27;102888;-76
2023/07/08 11:12:02;;;;;;;6.63;4.15;;;;;;;34.32;30.42;98803.03;5057984;27;103933;-76
2023/07/08 11:14:34;;;;;;;5.82;3.90;;;;;;;34.37;30.97;98804.97;5058175;27;103979;-76
2023/07/08 11:17:10;;;;;;;5.90;3.92;;;;;;;34.14;30.75;98802.56;5043311;27;103185;-76
2023/07/08 11:19:45;;;;;;;4.88;3.63;;;;;;;34.82;30.00;98790.78;5048249;27;102839;-77
2023/07/08 11:22:15;;;;;;;4.03;3.50;;;;;;;35.26;29.54;98791.31;5046736;27;103019;-76
2023/07/08 11:24:47;;;;;;;3.60;3.30;;;;;;;35.24;28.82;98790.78;5039496;27;103294;-76
2023/07/08 11:27:24;;;;;;;4.15;3.47;;;;;;;35.38;29.68;98789.19;5038659;27;103542;-77
2023/07/08 11:29:57;;;;;;;5.17;3.40;;;;;;;35.85;28.23;98792.66;5037991;27;102931;-77
2023/07/08 11:32:28;;;;;;;5.35;3.33;;;;;;;35.09;28.96;98790.72;5040589;27;103771;-78
2023/07/08 11:34:58;;;;;;;3.37;3.07;;;;;;;35.11;29.20;98783.03;5032331;27;104118;-77
2023/07/08 11:37:30;;;;;;;4.43;3.30;;;;;;;35.45;28.46;98785.09;5051830;27;103845;-78
2023/07/08 11:40:00;;;;;;;4.07;3.03;;;;;;;36.39;28.63;98783.94;5058061;27;102736;-78
2023/07/08 11:42:37;;;;;;;5.50;3.47;;;;;;;36.00;28.70;98781.69;5060611;27;103781;-78